createdAt,value
2019-04-24T00:03:00.377Z,13.93
2019-04-24T00:09:52.061Z,14.18
2019-04-24T00:12:26.133Z,15.05
2019-04-24T00:17:41.269Z,14.45
2019-04-24T00:22:58.866Z,14.23
2019-04-24T00:25:16.182Z,14.00
2019-04-24T00:27:44.728Z,13.88
2019-04-24T00:32:50.051Z,14.60
2019-04-24T00:37:50.005Z,14.15
2019-04-24T00:40:08.302Z,13.93
2019-04-24T00:43:14.517Z,13.80
2019-04-24T00:45:25.701Z,14.80
2019-04-24T00:48:02.302Z,14.83
2019-04-24T00:50:36.726Z,13.72
2019-04-24T00:53:25.393Z,13.60
2019-04-24T00:55:16.017Z,13.95
2019-04-24T01:00:26.862Z,14.38
2019-04-24T01:03:15.403Z,13.53
2019-04-24T01:05:58.378Z,15.23
2019-04-24T01:08:26.265Z,15.95
2019-04-24T01:11:03.336Z,15.23
2019-04-24T01:13:32.986Z,14.83
2019-04-24T01:18:36.953Z,13.78
2019-04-24T01:21:06.670Z,14.15
2019-04-24T01:23:26.152Z,13.83
2019-04-24T01:28:33.580Z,15.72
2019-04-24T01:31:22.944Z,14.65
2019-04-24T01:33:57.163Z,15.53
2019-04-24T01:36:51.717Z,15.05
2019-04-24T01:39:58.818Z,15.63
2019-04-24T01:44:54.845Z,14.83
2019-04-24T01:54:49.125Z,16.32
2019-04-24T01:57:27.823Z,17.40
2019-04-24T02:04:58.015Z,16.87
2019-04-24T02:07:31.696Z,16.02
2019-04-24T02:10:34.784Z,17.35
2019-04-24T02:17:44.415Z,15.85
2019-04-24T02:20:24.793Z,16.10
2019-04-24T02:22:50.228Z,15.35
2019-04-24T02:25:25.982Z,15.48
2019-04-24T02:30:41.242Z,16.50
2019-04-24T02:33:31.938Z,15.55
2019-04-24T02:38:11.391Z,15.03
2019-04-24T02:40:46.943Z,16.25
2019-04-24T02:43:35.832Z,16.30
2019-04-24T02:48:50.343Z,15.80
2019-04-24T02:50:58.362Z,15.63
2019-04-24T02:55:58.401Z,15.72
2019-04-24T02:58:39.961Z,15.25
2019-04-24T03:00:55.670Z,16.17
2019-04-24T03:03:33.868Z,14.68
2019-04-24T03:08:51.716Z,15.43
2019-04-24T03:11:11.943Z,15.25
2019-04-24T03:16:56.915Z,16.25
2019-04-24T03:24:16.147Z,16.65
2019-04-24T03:29:26.977Z,16.05
2019-04-24T03:32:45.282Z,16.00
2019-04-24T03:34:46.479Z,15.60
2019-04-24T03:39:48.598Z,15.88
2019-04-24T03:42:35.245Z,15.70
2019-04-24T03:45:06.874Z,15.88
2019-04-24T03:46:49.210Z,16.30
2019-04-24T03:49:43.311Z,15.53
2019-04-24T03:52:20.889Z,14.95
2019-04-24T03:55:03.494Z,15.45
2019-04-24T04:00:36.032Z,15.40
2019-04-24T04:08:23.048Z,15.43
2019-04-24T04:15:33.839Z,16.80
2019-04-24T04:18:27.234Z,16.65
2019-04-24T04:20:50.750Z,16.70
2019-04-24T04:39:48.683Z,15.40
2019-04-24T04:42:31.863Z,15.48
2019-04-24T04:44:55.013Z,15.15
2019-04-24T04:47:27.348Z,14.23
2019-04-24T04:50:36.038Z,15.03
2019-04-24T04:58:35.397Z,13.30
2019-04-24T05:01:41.117Z,13.78
2019-04-24T05:04:01.642Z,13.88
2019-04-24T05:27:14.236Z,13.20
2019-04-24T05:29:25.012Z,14.05
2019-04-24T05:31:46.592Z,13.08
2019-04-24T05:34:40.042Z,12.85
2019-04-24T05:36:58.681Z,13.28
2019-04-24T05:39:39.356Z,12.65
2019-04-24T05:42:11.032Z,12.95
2019-04-24T05:44:31.066Z,12.88
2019-04-24T05:47:09.584Z,12.85
2019-04-24T05:49:51.761Z,13.60
2019-04-24T05:52:25.073Z,13.00
2019-04-24T05:55:15.826Z,12.63
2019-04-24T05:57:57.610Z,13.03
2019-04-24T06:00:24.920Z,12.50
2019-04-24T06:05:25.646Z,14.40
2019-04-24T06:13:38.996Z,12.70
2019-04-24T06:16:28.298Z,12.35
2019-04-24T06:19:20.874Z,12.28
2019-04-24T06:21:48.753Z,12.45
2019-04-24T06:24:30.901Z,12.33
2019-04-24T06:26:52.508Z,11.93
2019-04-24T06:29:37.945Z,12.37
2019-04-24T06:32:29.422Z,13.45
2019-04-24T06:34:55.127Z,12.28
2019-04-24T06:37:40.642Z,12.25
2019-04-24T06:40:17.279Z,12.05
2019-04-24T06:42:54.408Z,12.58
2019-04-24T06:45:31.144Z,11.73
2019-04-24T06:50:15.267Z,12.78
2019-04-24T07:00:40.500Z,11.68
2019-04-24T07:03:49.078Z,11.75
2019-04-24T07:08:39.406Z,10.95
2019-04-24T07:14:18.969Z,11.70
2019-04-24T07:17:59.163Z,11.50
2019-04-24T07:19:36.106Z,10.82
2019-04-24T07:22:05.695Z,10.80
2019-04-24T07:24:41.459Z,11.68
2019-04-24T07:27:06.244Z,10.90
2019-04-24T07:29:45.377Z,11.45
2019-04-24T07:32:57.933Z,11.65
2019-04-24T07:35:46.476Z,11.03
2019-04-24T07:46:06.410Z,11.00
2019-04-24T07:48:44.856Z,11.40
2019-04-24T08:04:28.287Z,10.03
2019-04-24T08:07:04.607Z,10.05
2019-04-24T08:12:31.988Z,9.95
2019-04-24T08:17:38.931Z,10.43
2019-04-24T08:22:29.813Z,9.30
2019-04-24T08:27:39.538Z,9.40
2019-04-24T08:30:14.644Z,8.63
2019-04-24T08:40:57.031Z,7.87
2019-04-24T08:43:21.353Z,7.78
2019-04-24T08:46:08.220Z,7.20
2019-04-24T08:48:55.717Z,7.10
2019-04-24T08:51:21.754Z,6.85
2019-04-24T08:56:43.172Z,6.90
2019-04-24T09:02:04.823Z,7.10
2019-04-24T09:07:28.098Z,7.08
2019-04-24T09:10:29.446Z,7.37
2019-04-24T09:13:19.553Z,7.05
2019-04-24T09:15:39.535Z,6.47
2019-04-24T09:18:14.124Z,8.15
2019-04-24T09:20:39.686Z,7.50
2019-04-24T09:23:03.350Z,7.22
2019-04-24T09:26:17.337Z,7.35
2019-04-24T09:28:37.566Z,6.37
2019-04-24T09:31:05.490Z,7.60
2019-04-24T09:33:42.665Z,6.95
2019-04-24T09:39:06.121Z,8.48
2019-04-24T09:41:55.314Z,7.65
2019-04-24T09:46:48.093Z,6.78
2019-04-24T09:51:59.419Z,7.15
2019-04-24T09:54:47.948Z,8.70
2019-04-24T09:59:43.703Z,7.20
2019-04-24T10:02:40.394Z,6.35
2019-04-24T10:05:45.453Z,6.55
2019-04-24T10:10:42.846Z,6.17
2019-04-24T10:13:11.704Z,6.50
2019-04-24T10:15:50.571Z,7.15
2019-04-24T10:18:22.488Z,5.62
2019-04-24T10:20:42.720Z,5.80
2019-04-24T10:23:55.462Z,5.10
2019-04-24T10:34:49.375Z,6.12
2019-04-24T10:43:08.152Z,6.20
2019-04-24T10:45:46.286Z,5.25
2019-04-24T10:48:21.194Z,5.03
2019-04-24T10:51:03.610Z,5.80
2019-04-24T10:53:43.044Z,4.33
2019-04-24T10:56:30.833Z,5.30
2019-04-24T10:58:43.878Z,6.08
2019-04-24T11:04:41.296Z,4.87
2019-04-24T11:10:15.386Z,4.08
2019-04-24T11:13:06.019Z,4.10
2019-04-24T11:15:22.751Z,4.40
2019-04-24T11:17:53.999Z,4.15
2019-04-24T11:20:49.908Z,3.98
2019-04-24T11:23:16.071Z,4.40
2019-04-24T11:26:10.702Z,3.77
2019-04-24T11:28:50.675Z,3.27
2019-04-24T11:31:25.769Z,3.27
2019-04-24T11:36:52.847Z,4.12
2019-04-24T11:41:54.819Z,3.58
2019-04-24T11:44:16.744Z,3.87
2019-04-24T11:47:25.811Z,3.60
2019-04-24T11:49:55.833Z,3.95
2019-04-24T11:53:00.580Z,3.40
2019-04-24T11:55:22.206Z,4.28
2019-04-24T11:58:12.938Z,4.40
2019-04-24T12:00:11.818Z,3.62
2019-04-24T12:02:57.757Z,3.65
2019-04-24T12:08:48.031Z,4.20
2019-04-24T12:13:52.914Z,4.28
2019-04-24T12:16:39.632Z,4.55
2019-04-24T12:18:59.004Z,4.10
2019-04-24T12:21:50.230Z,4.83
2019-04-24T12:26:41.377Z,4.35
2019-04-24T12:29:10.553Z,4.72
2019-04-24T12:32:06.837Z,4.53
2019-04-24T12:34:43.520Z,4.55
2019-04-24T12:37:24.330Z,5.35
2019-04-24T12:39:42.287Z,4.47
2019-04-24T12:42:20.792Z,5.10
2019-04-24T12:44:44.898Z,4.10
2019-04-24T12:49:55.034Z,5.10
2019-04-24T12:52:24.372Z,4.25
2019-04-24T12:55:00.999Z,4.30
2019-04-24T13:00:42.401Z,4.20
2019-04-24T13:08:34.506Z,4.55
2019-04-24T13:11:15.980Z,4.08
2019-04-24T13:13:49.952Z,3.62
2019-04-24T13:16:21.607Z,5.25
2019-04-24T13:19:06.481Z,4.08
2019-04-24T13:21:01.684Z,4.08
2019-04-24T13:23:43.256Z,3.95
2019-04-24T13:26:31.304Z,3.47
2019-04-24T13:32:06.531Z,3.80
2019-04-24T13:37:03.897Z,4.42
2019-04-24T13:39:41.616Z,4.65
2019-04-24T13:42:07.761Z,4.35
2019-04-24T13:47:06.027Z,4.33
2019-04-24T13:52:18.015Z,3.87
2019-04-24T13:54:31.805Z,3.87
2019-04-24T13:57:10.921Z,4.20
2019-04-24T13:59:37.949Z,4.00
2019-04-24T14:02:04.925Z,3.72
2019-04-24T14:04:28.594Z,3.90
2019-04-24T14:07:11.707Z,3.85
2019-04-24T14:09:57.936Z,3.80
2019-04-24T14:12:51.897Z,3.77
2019-04-24T14:14:55.995Z,4.28
2019-04-24T14:17:28.876Z,4.30
2019-04-24T14:22:32.964Z,3.87
2019-04-24T14:25:17.786Z,4.72
2019-04-24T14:27:25.296Z,4.10
2019-04-24T14:32:47.810Z,4.15
2019-04-24T14:35:08.193Z,3.83
2019-04-24T14:37:37.330Z,4.30
2019-04-24T14:40:21.619Z,3.90
2019-04-24T14:42:41.049Z,3.60
2019-04-24T14:47:37.998Z,4.33
2019-04-24T14:52:38.125Z,3.58
2019-04-24T14:57:44.093Z,3.72
2019-04-24T15:00:18.770Z,3.60
2019-04-24T15:02:49.398Z,4.10
2019-04-24T15:07:55.636Z,3.92
2019-04-24T15:10:20.795Z,3.55
2019-04-24T15:12:54.799Z,3.42
2019-04-24T15:15:23.762Z,3.67
2019-04-24T15:18:10.898Z,3.62
2019-04-24T15:20:32.744Z,3.75
2019-04-24T15:30:46.316Z,3.08
2019-04-24T15:36:01.591Z,4.15
2019-04-24T15:45:52.875Z,4.10
2019-04-24T15:48:30.449Z,3.70
2019-04-24T15:52:48.059Z,4.03
2019-04-24T15:55:26.270Z,4.80
2019-04-24T15:57:56.390Z,3.77
2019-04-24T16:01:06.210Z,4.03
2019-04-24T16:03:34.825Z,4.12
2019-04-24T16:05:30.281Z,3.90
2019-04-24T16:08:06.299Z,4.37
2019-04-24T16:10:36.317Z,4.05
2019-04-24T16:13:06.175Z,4.20
2019-04-24T16:16:04.853Z,4.30
2019-04-24T16:24:07.333Z,4.75
2019-04-24T16:26:09.420Z,4.60
2019-04-24T16:28:42.488Z,4.97
2019-04-24T16:31:14.112Z,4.60
2019-04-24T16:33:51.168Z,5.33
2019-04-24T16:38:48.391Z,4.87
2019-04-24T16:41:31.351Z,5.12
2019-04-24T16:44:01.870Z,4.60
2019-04-24T16:51:27.479Z,5.22
2019-04-24T16:59:02.909Z,5.20
2019-04-24T17:09:08.873Z,5.00
2019-04-24T17:11:39.071Z,4.85
2019-04-24T17:14:19.308Z,5.80
2019-04-24T17:19:33.863Z,5.03
2019-04-24T17:29:33.638Z,4.60
2019-04-24T17:32:02.514Z,5.45
2019-04-24T17:34:54.922Z,5.33
2019-04-24T17:36:33.053Z,5.17
2019-04-24T17:39:16.232Z,5.28
2019-04-24T17:41:55.110Z,5.95
2019-04-24T17:44:50.473Z,4.95
2019-04-24T17:47:18.716Z,5.15
2019-04-24T17:50:07.032Z,5.00
2019-04-24T17:52:40.738Z,5.33
2019-04-24T17:54:45.481Z,4.83
2019-04-24T17:59:21.311Z,4.55
2019-04-24T18:01:52.422Z,4.28
2019-04-24T18:04:21.368Z,4.15
2019-04-24T18:06:50.327Z,4.10
2019-04-24T18:09:22.188Z,4.55
2019-04-24T18:11:52.417Z,4.15
2019-04-24T18:14:21.377Z,4.08
2019-04-24T18:16:51.029Z,4.30
2019-04-24T18:19:21.929Z,4.10
2019-04-24T18:21:52.204Z,3.95
2019-04-24T18:24:52.391Z,3.87
2019-04-24T18:27:22.375Z,3.65
2019-04-24T18:29:52.974Z,4.12
2019-04-24T18:32:23.376Z,4.15
2019-04-24T18:34:52.151Z,3.95
2019-04-24T18:37:21.040Z,4.22
2019-04-24T18:39:51.303Z,4.35
2019-04-24T18:42:21.316Z,4.15
2019-04-24T18:44:50.064Z,4.12
2019-04-24T18:47:19.182Z,3.80
2019-04-24T18:49:48.072Z,4.10
2019-04-24T18:52:17.106Z,3.90
2019-04-24T18:54:49.073Z,3.05
2019-04-24T18:57:16.603Z,3.60
2019-04-24T18:59:45.344Z,3.22
2019-04-24T19:02:14.176Z,3.20
2019-04-24T19:04:42.859Z,2.77
2019-04-24T19:07:11.608Z,2.95
2019-04-24T19:09:41.848Z,2.87
2019-04-24T19:12:12.576Z,4.28
2019-04-24T19:14:41.739Z,4.42
2019-04-24T19:17:11.651Z,3.70
2019-04-24T19:19:41.485Z,2.98
2019-04-24T19:22:11.709Z,2.75
2019-04-24T19:24:41.627Z,3.83
2019-04-24T19:27:11.270Z,2.70
2019-04-24T19:29:40.085Z,1.70
2019-04-24T19:32:09.069Z,1.50
2019-04-24T19:34:37.958Z,1.50
2019-04-24T19:37:06.699Z,1.30
2019-04-24T19:39:35.377Z,2.10
2019-04-24T19:42:04.402Z,1.20
2019-04-24T19:44:33.089Z,1.52
2019-04-24T19:47:02.636Z,1.90
2019-04-24T19:49:32.217Z,2.10
2019-04-24T19:52:02.263Z,1.85
2019-04-24T19:54:31.958Z,1.98
2019-04-24T19:57:01.453Z,2.20
2019-04-24T19:59:31.461Z,2.45
2019-04-24T20:02:01.635Z,2.05
2019-04-24T20:04:31.495Z,1.75
2019-04-24T20:07:00.332Z,2.05
2019-04-24T20:09:45.880Z,3.20
2019-04-24T20:12:15.021Z,2.55
2019-04-24T20:14:43.744Z,2.30
2019-04-24T20:17:13.369Z,1.62
2019-04-24T20:19:42.152Z,1.80
2019-04-24T20:22:11.875Z,1.30
2019-04-24T20:24:42.485Z,1.10
2019-04-24T20:27:11.350Z,1.40
2019-04-24T20:29:40.059Z,1.47
2019-04-24T20:32:08.785Z,1.05
2019-04-24T20:34:37.527Z,1.20
2019-04-24T20:37:06.233Z,1.20
2019-04-24T20:39:35.059Z,1.10
2019-04-24T20:42:03.768Z,1.62
2019-04-24T20:44:32.581Z,1.40
2019-04-24T20:47:02.266Z,1.52
2019-04-24T20:49:31.139Z,0.98
2019-04-24T20:52:01.106Z,1.10
2019-04-24T20:54:30.348Z,1.12
2019-04-24T20:57:06.499Z,1.00
2019-04-24T20:59:29.645Z,1.12
2019-04-24T21:01:58.438Z,0.80
2019-04-24T21:04:28.073Z,0.78
2019-04-24T21:07:07.721Z,1.22
2019-04-24T21:09:46.883Z,1.10
2019-04-24T21:12:15.568Z,0.95
2019-04-24T21:14:46.050Z,0.93
2019-04-24T21:17:14.842Z,1.20
2019-04-24T21:19:43.669Z,1.10
2019-04-24T21:22:12.416Z,1.12
2019-04-24T21:24:41.679Z,1.00
2019-04-24T21:27:11.473Z,0.80
2019-04-24T21:29:40.233Z,1.00
2019-04-24T21:32:08.988Z,1.25
2019-04-24T21:34:38.081Z,1.37
2019-04-24T21:37:06.802Z,1.20
2019-04-24T21:39:35.537Z,1.62
2019-04-24T21:42:04.258Z,1.40
2019-04-24T21:44:35.941Z,1.40
2019-04-24T21:47:03.575Z,1.50
2019-04-24T21:49:32.695Z,1.20
2019-04-24T21:52:01.497Z,1.42
2019-04-24T21:54:32.231Z,1.00
2019-04-24T21:57:02.225Z,1.10
2019-04-24T21:59:31.733Z,1.30
2019-04-24T22:02:19.232Z,1.17
2019-04-24T22:04:55.445Z,1.25
2019-04-24T22:07:30.020Z,1.20
2019-04-24T22:10:01.495Z,1.20
2019-04-24T22:12:31.162Z,1.20
2019-04-24T22:15:01.976Z,1.40
2019-04-24T22:17:31.352Z,1.40
2019-04-24T22:20:01.792Z,1.10
2019-04-24T22:22:55.093Z,0.85
2019-04-24T22:25:36.355Z,1.05
2019-04-24T22:28:05.546Z,1.17
2019-04-24T22:31:02.204Z,1.10
2019-04-24T22:33:36.011Z,1.47
2019-04-24T22:36:03.364Z,1.60
2019-04-24T22:38:35.639Z,1.77
2019-04-24T22:41:06.168Z,1.37
2019-04-24T22:43:35.950Z,1.40
2019-04-24T22:46:04.767Z,1.20
2019-04-24T22:48:33.716Z,1.40
2019-04-24T22:51:03.433Z,1.80
2019-04-24T22:53:33.050Z,1.47
2019-04-24T22:56:01.904Z,1.50
2019-04-24T22:58:31.409Z,2.10
2019-04-24T23:01:00.254Z,1.57
2019-04-24T23:03:29.189Z,1.50
2019-04-24T23:05:57.937Z,1.80
2019-04-24T23:08:26.714Z,1.98
2019-04-24T23:10:55.523Z,1.75
2019-04-24T23:13:24.570Z,1.35
2019-04-24T23:15:53.446Z,1.10
2019-04-24T23:18:22.310Z,0.93
2019-04-24T23:21:03.911Z,1.02
2019-04-24T23:23:50.270Z,0.75
2019-04-24T23:26:34.131Z,1.17
2019-04-24T23:29:12.064Z,0.93
2019-04-24T23:32:03.185Z,1.00
2019-04-24T23:34:33.592Z,0.90
2019-04-24T23:37:02.552Z,0.80
2019-04-24T23:39:31.357Z,0.68
2019-04-24T23:42:00.165Z,1.02
2019-04-24T23:44:29.030Z,0.60
2019-04-24T23:46:57.748Z,0.70
2019-04-24T23:49:26.432Z,0.80
2019-04-24T23:51:55.172Z,1.00
2019-04-24T23:54:23.937Z,0.95
2019-04-24T23:56:52.743Z,0.68
2019-04-24T23:59:21.455Z,1.20
